sensor_id;sensor_type;location;lat;lon;timestamp;P1;durP1;ratioP1;P2;durP2;ratioP2
10463;SDS011;5279;42.048;24.638;2023-07-28T00:02:05;2.43;;;2.30;;
10463;SDS011;5279;42.048;24.638;2023-07-28T00:04:33;2.40;;;2.20;;
10463;SDS011;5279;42.048;24.638;2023-07-28T00:07:01;2.30;;;2.20;;
10463;SDS011;5279;42.048;24.638;2023-07-28T00:09:28;2.43;;;2.30;;
10463;SDS011;5279;42.048;24.638;2023-07-28T00:11:56;2.27;;;2.00;;
10463;SDS011;5279;42.048;24.638;2023-07-28T00:14:23;2.47;;;2.27;;
10463;SDS011;5279;42.048;24.638;2023-07-28T00:16:52;2.87;;;2.67;;
10463;SDS011;5279;42.048;24.638;2023-07-28T00:19:19;2.40;;;2.20;;
10463;SDS011;5279;42.048;24.638;2023-07-28T00:21:47;2.10;;;2.00;;
10463;SDS011;5279;42.048;24.638;2023-07-28T00:24:14;2.77;;;2.57;;
10463;SDS011;5279;42.048;24.638;2023-07-28T00:26:41;2.17;;;2.07;;
10463;SDS011;5279;42.048;24.638;2023-07-28T00:29:08;2.27;;;2.17;;
10463;SDS011;5279;42.048;24.638;2023-07-28T00:31:35;2.57;;;2.37;;
10463;SDS011;5279;42.048;24.638;2023-07-28T00:34:04;2.37;;;2.27;;
10463;SDS011;5279;42.048;24.638;2023-07-28T00:36:32;2.63;;;2.43;;
10463;SDS011;5279;42.048;24.638;2023-07-28T00:39:00;2.33;;;2.13;;
10463;SDS011;5279;42.048;24.638;2023-07-28T00:41:27;2.40;;;2.20;;
10463;SDS011;5279;42.048;24.638;2023-07-28T00:43:54;3.07;;;2.50;;
10463;SDS011;5279;42.048;24.638;2023-07-28T00:46:21;2.50;;;2.30;;
10463;SDS011;5279;42.048;24.638;2023-07-28T00:48:48;2.50;;;2.30;;
10463;SDS011;5279;42.048;24.638;2023-07-28T00:51:17;2.73;;;2.50;;
10463;SDS011;5279;42.048;24.638;2023-07-28T00:53:44;2.63;;;2.33;;
10463;SDS011;5279;42.048;24.638;2023-07-28T00:56:12;2.70;;;2.50;;
10463;SDS011;5279;42.048;24.638;2023-07-28T00:58:39;2.60;;;2.40;;
10463;SDS011;5279;42.048;24.638;2023-07-28T01:01:06;2.77;;;2.43;;
10463;SDS011;5279;42.048;24.638;2023-07-28T01:03:33;2.40;;;2.20;;
10463;SDS011;5279;42.048;24.638;2023-07-28T01:06:03;2.37;;;2.23;;
10463;SDS011;5279;42.048;24.638;2023-07-28T01:08:46;2.50;;;2.30;;
10463;SDS011;5279;42.048;24.638;2023-07-28T01:11:16;3.83;;;2.53;;
10463;SDS011;5279;42.048;24.638;2023-07-28T01:13:43;2.40;;;2.30;;
10463;SDS011;5279;42.048;24.638;2023-07-28T01:16:10;2.50;;;2.30;;
10463;SDS011;5279;42.048;24.638;2023-07-28T01:18:37;3.23;;;2.50;;
10463;SDS011;5279;42.048;24.638;2023-07-28T01:21:05;2.33;;;2.20;;
10463;SDS011;5279;42.048;24.638;2023-07-28T01:23:37;2.13;;;2.03;;
10463;SDS011;5279;42.048;24.638;2023-07-28T01:26:15;2.63;;;2.43;;
10463;SDS011;5279;42.048;24.638;2023-07-28T01:28:46;2.37;;;2.17;;
10463;SDS011;5279;42.048;24.638;2023-07-28T01:31:14;2.30;;;2.10;;
10463;SDS011;5279;42.048;24.638;2023-07-28T01:33:41;2.50;;;2.20;;
10463;SDS011;5279;42.048;24.638;2023-07-28T01:36:08;2.57;;;2.30;;
10463;SDS011;5279;42.048;24.638;2023-07-28T01:38:35;2.00;;;1.90;;
10463;SDS011;5279;42.048;24.638;2023-07-28T01:41:02;2.40;;;2.30;;
10463;SDS011;5279;42.048;24.638;2023-07-28T01:43:29;3.13;;;2.93;;
10463;SDS011;5279;42.048;24.638;2023-07-28T01:45:58;2.33;;;2.20;;
10463;SDS011;5279;42.048;24.638;2023-07-28T01:48:25;3.30;;;2.20;;
10463;SDS011;5279;42.048;24.638;2023-07-28T01:50:53;2.80;;;2.60;;
10463;SDS011;5279;42.048;24.638;2023-07-28T01:53:19;2.80;;;2.40;;
10463;SDS011;5279;42.048;24.638;2023-07-28T01:55:46;3.30;;;2.20;;
10463;SDS011;5279;42.048;24.638;2023-07-28T01:58:13;2.00;;;1.90;;
10463;SDS011;5279;42.048;24.638;2023-07-28T02:00:40;4.87;;;2.43;;
10463;SDS011;5279;42.048;24.638;2023-07-28T02:03:09;2.20;;;2.07;;
10463;SDS011;5279;42.048;24.638;2023-07-28T02:05:36;2.33;;;2.13;;
10463;SDS011;5279;42.048;24.638;2023-07-28T02:08:06;6.07;;;2.30;;
10463;SDS011;5279;42.048;24.638;2023-07-28T02:10:33;2.20;;;2.10;;
10463;SDS011;5279;42.048;24.638;2023-07-28T02:13:00;2.10;;;2.00;;
10463;SDS011;5279;42.048;24.638;2023-07-28T02:15:27;2.20;;;2.00;;
10463;SDS011;5279;42.048;24.638;2023-07-28T02:17:54;2.60;;;2.40;;
10463;SDS011;5279;42.048;24.638;2023-07-28T02:20:22;3.50;;;2.20;;
10463;SDS011;5279;42.048;24.638;2023-07-28T02:22:49;2.63;;;2.43;;
10463;SDS011;5279;42.048;24.638;2023-07-28T02:25:16;2.70;;;2.50;;
10463;SDS011;5279;42.048;24.638;2023-07-28T02:27:43;2.40;;;2.20;;
10463;SDS011;5279;42.048;24.638;2023-07-28T02:30:10;2.33;;;2.17;;
10463;SDS011;5279;42.048;24.638;2023-07-28T02:32:38;2.33;;;2.07;;
10463;SDS011;5279;42.048;24.638;2023-07-28T02:35:06;2.30;;;2.20;;
10463;SDS011;5279;42.048;24.638;2023-07-28T02:37:37;2.80;;;2.20;;
10463;SDS011;5279;42.048;24.638;2023-07-28T02:40:04;3.50;;;2.20;;
10463;SDS011;5279;42.048;24.638;2023-07-28T02:42:32;2.17;;;2.07;;
10463;SDS011;5279;42.048;24.638;2023-07-28T02:45:00;2.20;;;2.10;;
10463;SDS011;5279;42.048;24.638;2023-07-28T02:47:27;2.00;;;1.90;;
10463;SDS011;5279;42.048;24.638;2023-07-28T02:49:55;2.43;;;2.23;;
10463;SDS011;5279;42.048;24.638;2023-07-28T02:52:22;3.47;;;1.70;;
10463;SDS011;5279;42.048;24.638;2023-07-28T02:54:51;2.17;;;2.07;;
10463;SDS011;5279;42.048;24.638;2023-07-28T02:57:18;2.23;;;2.00;;
10463;SDS011;5279;42.048;24.638;2023-07-28T02:59:45;2.10;;;1.90;;
10463;SDS011;5279;42.048;24.638;2023-07-28T03:02:12;2.53;;;2.33;;
10463;SDS011;5279;42.048;24.638;2023-07-28T03:04:40;3.57;;;1.80;;
10463;SDS011;5279;42.048;24.638;2023-07-28T03:07:07;2.10;;;1.93;;
10463;SDS011;5279;42.048;24.638;2023-07-28T03:09:34;2.77;;;2.27;;
10463;SDS011;5279;42.048;24.638;2023-07-28T03:12:03;3.20;;;1.90;;
10463;SDS011;5279;42.048;24.638;2023-07-28T03:14:31;1.80;;;1.70;;
10463;SDS011;5279;42.048;24.638;2023-07-28T03:16:58;1.93;;;1.83;;
10463;SDS011;5279;42.048;24.638;2023-07-28T03:19:25;2.33;;;2.13;;
10463;SDS011;5279;42.048;24.638;2023-07-28T03:21:53;1.90;;;1.80;;
10463;SDS011;5279;42.048;24.638;2023-07-28T03:24:20;2.00;;;1.90;;
10463;SDS011;5279;42.048;24.638;2023-07-28T03:26:47;2.10;;;2.00;;
10463;SDS011;5279;42.048;24.638;2023-07-28T03:29:16;2.10;;;2.00;;
10463;SDS011;5279;42.048;24.638;2023-07-28T03:31:43;1.80;;;1.70;;
10463;SDS011;5279;42.048;24.638;2023-07-28T03:34:10;1.47;;;1.40;;
10463;SDS011;5279;42.048;24.638;2023-07-28T03:36:37;2.00;;;1.90;;
10463;SDS011;5279;42.048;24.638;2023-07-28T03:39:04;2.40;;;2.00;;
10463;SDS011;5279;42.048;24.638;2023-07-28T03:41:31;2.00;;;1.90;;
10463;SDS011;5279;42.048;24.638;2023-07-28T03:43:58;2.23;;;2.07;;
10463;SDS011;5279;42.048;24.638;2023-07-28T03:46:27;2.23;;;2.07;;
10463;SDS011;5279;42.048;24.638;2023-07-28T03:48:54;1.90;;;1.70;;
10463;SDS011;5279;42.048;24.638;2023-07-28T03:51:23;1.87;;;1.77;;
10463;SDS011;5279;42.048;24.638;2023-07-28T03:53:50;1.70;;;1.60;;
10463;SDS011;5279;42.048;24.638;2023-07-28T03:56:17;2.03;;;1.93;;
10463;SDS011;5279;42.048;24.638;2023-07-28T03:58:44;2.03;;;1.93;;
10463;SDS011;5279;42.048;24.638;2023-07-28T04:01:11;1.70;;;1.60;;
10463;SDS011;5279;42.048;24.638;2023-07-28T04:03:40;1.73;;;1.63;;
10463;SDS011;5279;42.048;24.638;2023-07-28T04:06:09;1.90;;;1.80;;
10463;SDS011;5279;42.048;24.638;2023-07-28T04:08:36;1.83;;;1.73;;
10463;SDS011;5279;42.048;24.638;2023-07-28T04:11:04;2.00;;;1.40;;
10463;SDS011;5279;42.048;24.638;2023-07-28T04:13:31;1.80;;;1.70;;
10463;SDS011;5279;42.048;24.638;2023-07-28T04:15:59;1.90;;;1.80;;
10463;SDS011;5279;42.048;24.638;2023-07-28T04:18:26;2.00;;;1.40;;
10463;SDS011;5279;42.048;24.638;2023-07-28T04:20:55;1.63;;;1.53;;
10463;SDS011;5279;42.048;24.638;2023-07-28T04:23:21;1.60;;;1.50;;
10463;SDS011;5279;42.048;24.638;2023-07-28T04:25:49;1.90;;;1.70;;
10463;SDS011;5279;42.048;24.638;2023-07-28T04:28:15;1.83;;;1.70;;
10463;SDS011;5279;42.048;24.638;2023-07-28T04:30:42;1.53;;;1.43;;
10463;SDS011;5279;42.048;24.638;2023-07-28T04:33:09;1.70;;;1.60;;
10463;SDS011;5279;42.048;24.638;2023-07-28T04:35:36;1.60;;;1.50;;
10463;SDS011;5279;42.048;24.638;2023-07-28T04:38:04;1.60;;;1.50;;
10463;SDS011;5279;42.048;24.638;2023-07-28T04:40:31;1.63;;;1.53;;
10463;SDS011;5279;42.048;24.638;2023-07-28T04:42:58;1.47;;;1.37;;
10463;SDS011;5279;42.048;24.638;2023-07-28T04:45:25;1.40;;;1.30;;
10463;SDS011;5279;42.048;24.638;2023-07-28T04:47:52;1.40;;;1.30;;
10463;SDS011;5279;42.048;24.638;2023-07-28T04:50:19;1.50;;;1.40;;
10463;SDS011;5279;42.048;24.638;2023-07-28T04:52:46;1.90;;;1.50;;
10463;SDS011;5279;42.048;24.638;2023-07-28T04:55:14;2.60;;;1.40;;
10463;SDS011;5279;42.048;24.638;2023-07-28T04:57:41;2.87;;;1.60;;
10463;SDS011;5279;42.048;24.638;2023-07-28T05:00:09;2.43;;;1.40;;
10463;SDS011;5279;42.048;24.638;2023-07-28T05:02:37;2.50;;;1.33;;
10463;SDS011;5279;42.048;24.638;2023-07-28T05:05:04;1.40;;;1.30;;
10463;SDS011;5279;42.048;24.638;2023-07-28T05:07:31;1.13;;;1.13;;
10463;SDS011;5279;42.048;24.638;2023-07-28T05:09:57;1.50;;;1.40;;
10463;SDS011;5279;42.048;24.638;2023-07-28T05:12:25;1.47;;;1.30;;
10463;SDS011;5279;42.048;24.638;2023-07-28T05:14:52;2.80;;;1.50;;
10463;SDS011;5279;42.048;24.638;2023-07-28T05:17:20;1.97;;;1.77;;
10463;SDS011;5279;42.048;24.638;2023-07-28T05:19:47;1.40;;;1.30;;
10463;SDS011;5279;42.048;24.638;2023-07-28T05:22:14;2.03;;;1.70;;
10463;SDS011;5279;42.048;24.638;2023-07-28T05:24:41;1.37;;;1.27;;
10463;SDS011;5279;42.048;24.638;2023-07-28T05:27:09;3.70;;;1.30;;
10463;SDS011;5279;42.048;24.638;2023-07-28T05:29:37;1.60;;;1.50;;
10463;SDS011;5279;42.048;24.638;2023-07-28T05:32:05;1.73;;;1.63;;
10463;SDS011;5279;42.048;24.638;2023-07-28T05:34:35;2.60;;;2.33;;
10463;SDS011;5279;42.048;24.638;2023-07-28T05:37:04;3.90;;;2.50;;
10463;SDS011;5279;42.048;24.638;2023-07-28T05:39:31;2.20;;;2.00;;
10463;SDS011;5279;42.048;24.638;2023-07-28T05:41:58;3.17;;;2.10;;
10463;SDS011;5279;42.048;24.638;2023-07-28T05:44:25;6.03;;;2.07;;
10463;SDS011;5279;42.048;24.638;2023-07-28T05:46:53;4.40;;;2.00;;
10463;SDS011;5279;42.048;24.638;2023-07-28T05:49:20;4.47;;;2.20;;
10463;SDS011;5279;42.048;24.638;2023-07-28T05:51:47;2.40;;;2.20;;
10463;SDS011;5279;42.048;24.638;2023-07-28T05:54:14;2.80;;;2.30;;
10463;SDS011;5279;42.048;24.638;2023-07-28T05:56:41;2.50;;;2.30;;
10463;SDS011;5279;42.048;24.638;2023-07-28T05:59:08;2.17;;;2.00;;
10463;SDS011;5279;42.048;24.638;2023-07-28T06:01:35;5.57;;;2.50;;
10463;SDS011;5279;42.048;24.638;2023-07-28T06:04:03;2.63;;;2.43;;
10463;SDS011;5279;42.048;24.638;2023-07-28T06:06:30;4.17;;;2.70;;
10463;SDS011;5279;42.048;24.638;2023-07-28T06:08:57;3.73;;;2.00;;
10463;SDS011;5279;42.048;24.638;2023-07-28T06:11:24;2.43;;;2.23;;
10463;SDS011;5279;42.048;24.638;2023-07-28T06:13:51;2.80;;;2.23;;
10463;SDS011;5279;42.048;24.638;2023-07-28T06:16:18;2.73;;;2.47;;
10463;SDS011;5279;42.048;24.638;2023-07-28T06:18:45;3.10;;;2.30;;
10463;SDS011;5279;42.048;24.638;2023-07-28T06:21:13;3.30;;;1.80;;
10463;SDS011;5279;42.048;24.638;2023-07-28T06:23:40;2.40;;;2.20;;
10463;SDS011;5279;42.048;24.638;2023-07-28T06:26:07;2.63;;;2.00;;
10463;SDS011;5279;42.048;24.638;2023-07-28T06:28:34;2.70;;;2.27;;
10463;SDS011;5279;42.048;24.638;2023-07-28T06:31:02;2.93;;;2.00;;
10463;SDS011;5279;42.048;24.638;2023-07-28T06:33:29;6.17;;;2.47;;
10463;SDS011;5279;42.048;24.638;2023-07-28T06:35:56;2.53;;;2.20;;
10463;SDS011;5279;42.048;24.638;2023-07-28T06:38:24;3.30;;;1.80;;
10463;SDS011;5279;42.048;24.638;2023-07-28T06:40:52;2.20;;;2.00;;
10463;SDS011;5279;42.048;24.638;2023-07-28T06:43:19;3.37;;;2.10;;
10463;SDS011;5279;42.048;24.638;2023-07-28T06:45:46;2.77;;;2.00;;
10463;SDS011;5279;42.048;24.638;2023-07-28T06:48:13;4.37;;;2.13;;
10463;SDS011;5279;42.048;24.638;2023-07-28T06:50:40;7.13;;;2.03;;
10463;SDS011;5279;42.048;24.638;2023-07-28T06:53:07;5.50;;;2.30;;
10463;SDS011;5279;42.048;24.638;2023-07-28T06:55:35;2.03;;;1.93;;
10463;SDS011;5279;42.048;24.638;2023-07-28T06:58:04;2.23;;;2.00;;
10463;SDS011;5279;42.048;24.638;2023-07-28T07:00:31;2.40;;;2.10;;
10463;SDS011;5279;42.048;24.638;2023-07-28T07:02:58;4.10;;;1.97;;
10463;SDS011;5279;42.048;24.638;2023-07-28T07:05:25;7.13;;;2.00;;
10463;SDS011;5279;42.048;24.638;2023-07-28T07:07:52;3.03;;;2.30;;
10463;SDS011;5279;42.048;24.638;2023-07-28T07:10:19;2.30;;;2.10;;
10463;SDS011;5279;42.048;24.638;2023-07-28T07:12:48;2.83;;;2.00;;
10463;SDS011;5279;42.048;24.638;2023-07-28T07:15:15;2.00;;;1.90;;
10463;SDS011;5279;42.048;24.638;2023-07-28T07:17:42;3.53;;;2.87;;
10463;SDS011;5279;42.048;24.638;2023-07-28T07:20:09;3.07;;;2.13;;
10463;SDS011;5279;42.048;24.638;2023-07-28T07:22:36;3.13;;;2.20;;
10463;SDS011;5279;42.048;24.638;2023-07-28T07:25:04;2.40;;;2.20;;
10463;SDS011;5279;42.048;24.638;2023-07-28T07:27:32;2.87;;;2.10;;
10463;SDS011;5279;42.048;24.638;2023-07-28T07:30:00;6.43;;;2.13;;
10463;SDS011;5279;42.048;24.638;2023-07-28T07:32:28;3.10;;;2.30;;
10463;SDS011;5279;42.048;24.638;2023-07-28T07:34:54;2.23;;;2.03;;
10463;SDS011;5279;42.048;24.638;2023-07-28T07:37:21;5.27;;;1.77;;
10463;SDS011;5279;42.048;24.638;2023-07-28T07:39:48;2.23;;;2.03;;
10463;SDS011;5279;42.048;24.638;2023-07-28T07:42:15;2.17;;;2.00;;
10463;SDS011;5279;42.048;24.638;2023-07-28T07:44:42;3.53;;;1.90;;
10463;SDS011;5279;42.048;24.638;2023-07-28T07:47:13;2.17;;;2.00;;
10463;SDS011;5279;42.048;24.638;2023-07-28T07:49:41;3.20;;;2.10;;
10463;SDS011;5279;42.048;24.638;2023-07-28T07:52:08;2.10;;;2.00;;
10463;SDS011;5279;42.048;24.638;2023-07-28T07:54:35;2.47;;;2.27;;
10463;SDS011;5279;42.048;24.638;2023-07-28T07:57:03;3.47;;;1.93;;
10463;SDS011;5279;42.048;24.638;2023-07-28T07:59:30;2.50;;;1.60;;
10463;SDS011;5279;42.048;24.638;2023-07-28T08:01:58;2.53;;;1.87;;
10463;SDS011;5279;42.048;24.638;2023-07-28T08:04:29;2.70;;;1.83;;
10463;SDS011;5279;42.048;24.638;2023-07-28T08:06:56;1.70;;;1.60;;
10463;SDS011;5279;42.048;24.638;2023-07-28T08:09:23;3.13;;;1.60;;
10463;SDS011;5279;42.048;24.638;2023-07-28T08:11:50;2.13;;;1.90;;
10463;SDS011;5279;42.048;24.638;2023-07-28T08:14:18;2.30;;;1.87;;
10463;SDS011;5279;42.048;24.638;2023-07-28T08:16:45;2.33;;;1.90;;
10463;SDS011;5279;42.048;24.638;2023-07-28T08:19:12;2.97;;;1.93;;
10463;SDS011;5279;42.048;24.638;2023-07-28T08:21:40;1.97;;;1.87;;
10463;SDS011;5279;42.048;24.638;2023-07-28T08:24:07;2.00;;;1.70;;
10463;SDS011;5279;42.048;24.638;2023-07-28T08:26:34;3.07;;;1.57;;
10463;SDS011;5279;42.048;24.638;2023-07-28T08:29:01;2.70;;;1.77;;
10463;SDS011;5279;42.048;24.638;2023-07-28T08:31:28;1.90;;;1.80;;
10463;SDS011;5279;42.048;24.638;2023-07-28T08:33:55;3.27;;;1.97;;
10463;SDS011;5279;42.048;24.638;2023-07-28T08:36:22;1.80;;;1.70;;
10463;SDS011;5279;42.048;24.638;2023-07-28T08:38:50;2.00;;;1.80;;
10463;SDS011;5279;42.048;24.638;2023-07-28T08:41:18;2.20;;;1.70;;
10463;SDS011;5279;42.048;24.638;2023-07-28T08:43:46;3.50;;;1.50;;
10463;SDS011;5279;42.048;24.638;2023-07-28T08:46:12;1.77;;;1.52;;
10463;SDS011;5279;42.048;24.638;2023-07-28T08:48:39;2.35;;;1.67;;
10463;SDS011;5279;42.048;24.638;2023-07-28T08:51:06;1.75;;;1.65;;
10463;SDS011;5279;42.048;24.638;2023-07-28T08:53:33;2.57;;;1.70;;
10463;SDS011;5279;42.048;24.638;2023-07-28T08:56:02;1.52;;;1.42;;
10463;SDS011;5279;42.048;24.638;2023-07-28T08:58:29;3.72;;;1.70;;
10463;SDS011;5279;42.048;24.638;2023-07-28T09:00:56;2.63;;;1.73;;
10463;SDS011;5279;42.048;24.638;2023-07-28T09:03:26;3.20;;;1.63;;
10463;SDS011;5279;42.048;24.638;2023-07-28T09:05:54;1.45;;;1.35;;
10463;SDS011;5279;42.048;24.638;2023-07-28T09:08:26;1.60;;;1.48;;
10463;SDS011;5279;42.048;24.638;2023-07-28T09:10:53;1.73;;;1.42;;
10463;SDS011;5279;42.048;24.638;2023-07-28T09:13:22;1.80;;;1.60;;
10463;SDS011;5279;42.048;24.638;2023-07-28T09:15:49;1.60;;;1.50;;
10463;SDS011;5279;42.048;24.638;2023-07-28T09:18:16;1.88;;;1.40;;
10463;SDS011;5279;42.048;24.638;2023-07-28T09:20:43;1.50;;;1.40;;
10463;SDS011;5279;42.048;24.638;2023-07-28T09:23:12;2.53;;;1.30;;
10463;SDS011;5279;42.048;24.638;2023-07-28T09:25:41;2.20;;;1.42;;
10463;SDS011;5279;42.048;24.638;2023-07-28T09:28:08;8.30;;;1.55;;
10463;SDS011;5279;42.048;24.638;2023-07-28T09:30:46;3.50;;;1.67;;
10463;SDS011;5279;42.048;24.638;2023-07-28T09:33:16;1.40;;;1.30;;
10463;SDS011;5279;42.048;24.638;2023-07-28T09:35:55;2.25;;;0.90;;
10463;SDS011;5279;42.048;24.638;2023-07-28T09:38:22;2.08;;;1.20;;
10463;SDS011;5279;42.048;24.638;2023-07-28T09:40:50;1.20;;;0.88;;
10463;SDS011;5279;42.048;24.638;2023-07-28T09:43:18;1.90;;;1.50;;
10463;SDS011;5279;42.048;24.638;2023-07-28T09:45:46;1.40;;;1.30;;
10463;SDS011;5279;42.048;24.638;2023-07-28T09:48:13;1.30;;;1.20;;
10463;SDS011;5279;42.048;24.638;2023-07-28T09:50:42;2.13;;;1.80;;
10463;SDS011;5279;42.048;24.638;2023-07-28T09:53:10;1.63;;;1.40;;
10463;SDS011;5279;42.048;24.638;2023-07-28T09:55:38;1.50;;;1.27;;
10463;SDS011;5279;42.048;24.638;2023-07-28T09:58:08;4.00;;;1.30;;
10463;SDS011;5279;42.048;24.638;2023-07-28T10:00:37;2.83;;;1.40;;
10463;SDS011;5279;42.048;24.638;2023-07-28T10:03:05;1.63;;;1.30;;
10463;SDS011;5279;42.048;24.638;2023-07-28T10:05:34;2.10;;;1.30;;
10463;SDS011;5279;42.048;24.638;2023-07-28T10:08:01;1.30;;;1.20;;
10463;SDS011;5279;42.048;24.638;2023-07-28T10:10:29;2.60;;;1.20;;
10463;SDS011;5279;42.048;24.638;2023-07-28T10:12:57;1.40;;;1.30;;
10463;SDS011;5279;42.048;24.638;2023-07-28T10:15:27;1.05;;;1.05;;
10463;SDS011;5279;42.048;24.638;2023-07-28T10:17:56;1.52;;;1.20;;
10463;SDS011;5279;42.048;24.638;2023-07-28T10:20:29;1.23;;;1.23;;
10463;SDS011;5279;42.048;24.638;2023-07-28T10:23:03;1.42;;;1.30;;
10463;SDS011;5279;42.048;24.638;2023-07-28T10:25:34;4.18;;;1.40;;
10463;SDS011;5279;42.048;24.638;2023-07-28T10:28:03;1.23;;;1.10;;
10463;SDS011;5279;42.048;24.638;2023-07-28T10:30:34;1.17;;;1.10;;
10463;SDS011;5279;42.048;24.638;2023-07-28T10:33:03;1.48;;;1.35;;
10463;SDS011;5279;42.048;24.638;2023-07-28T10:35:31;1.13;;;1.10;;
10463;SDS011;5279;42.048;24.638;2023-07-28T10:41:10;2.55;;;1.40;;
10463;SDS011;5279;42.048;24.638;2023-07-28T10:43:39;2.55;;;1.52;;
10463;SDS011;5279;42.048;24.638;2023-07-28T10:46:07;1.17;;;1.17;;
10463;SDS011;5279;42.048;24.638;2023-07-28T10:48:35;1.15;;;1.15;;
10463;SDS011;5279;42.048;24.638;2023-07-28T10:51:06;1.55;;;1.20;;
10463;SDS011;5279;42.048;24.638;2023-07-28T10:53:33;2.25;;;1.27;;
10463;SDS011;5279;42.048;24.638;2023-07-28T10:56:01;1.20;;;1.10;;
10463;SDS011;5279;42.048;24.638;2023-07-28T10:58:29;2.38;;;1.00;;
10463;SDS011;5279;42.048;24.638;2023-07-28T11:00:57;1.10;;;1.00;;
10463;SDS011;5279;42.048;24.638;2023-07-28T11:03:24;1.48;;;1.38;;
10463;SDS011;5279;42.048;24.638;2023-07-28T11:05:51;1.00;;;1.00;;
10463;SDS011;5279;42.048;24.638;2023-07-28T11:08:22;1.90;;;1.27;;
10463;SDS011;5279;42.048;24.638;2023-07-28T11:10:50;1.50;;;1.40;;
10463;SDS011;5279;42.048;24.638;2023-07-28T11:13:17;5.57;;;1.52;;
10463;SDS011;5279;42.048;24.638;2023-07-28T11:15:44;2.45;;;1.20;;
10463;SDS011;5279;42.048;24.638;2023-07-28T11:18:10;3.60;;;1.35;;
10463;SDS011;5279;42.048;24.638;2023-07-28T11:20:41;1.50;;;1.33;;
10463;SDS011;5279;42.048;24.638;2023-07-28T11:23:08;1.70;;;1.33;;
10463;SDS011;5279;42.048;24.638;2023-07-28T11:25:49;2.92;;;1.27;;
10463;SDS011;5279;42.048;24.638;2023-07-28T11:28:16;1.30;;;1.17;;
10463;SDS011;5279;42.048;24.638;2023-07-28T11:30:45;1.48;;;1.38;;
10463;SDS011;5279;42.048;24.638;2023-07-28T11:33:13;3.47;;;1.40;;
10463;SDS011;5279;42.048;24.638;2023-07-28T11:35:40;2.67;;;1.30;;
10463;SDS011;5279;42.048;24.638;2023-07-28T11:38:11;2.55;;;1.27;;
10463;SDS011;5279;42.048;24.638;2023-07-28T11:40:40;1.55;;;1.10;;
10463;SDS011;5279;42.048;24.638;2023-07-28T11:43:09;1.52;;;1.42;;
10463;SDS011;5279;42.048;24.638;2023-07-28T11:45:36;1.40;;;1.30;;
10463;SDS011;5279;42.048;24.638;2023-07-28T11:48:04;1.40;;;1.30;;
10463;SDS011;5279;42.048;24.638;2023-07-28T11:50:34;2.72;;;1.05;;
10463;SDS011;5279;42.048;24.638;2023-07-28T11:53:02;1.40;;;1.30;;
10463;SDS011;5279;42.048;24.638;2023-07-28T11:55:29;1.40;;;1.30;;
10463;SDS011;5279;42.048;24.638;2023-07-28T11:57:55;1.50;;;1.40;;
10463;SDS011;5279;42.048;24.638;2023-07-28T12:00:29;1.55;;;1.27;;
10463;SDS011;5279;42.048;24.638;2023-07-28T12:03:03;3.15;;;1.30;;
10463;SDS011;5279;42.048;24.638;2023-07-28T12:05:31;2.70;;;1.40;;
10463;SDS011;5279;42.048;24.638;2023-07-28T12:07:58;1.42;;;1.33;;
10463;SDS011;5279;42.048;24.638;2023-07-28T12:10:25;1.30;;;1.20;;
10463;SDS011;5279;42.048;24.638;2023-07-28T12:12:52;1.45;;;1.35;;
10463;SDS011;5279;42.048;24.638;2023-07-28T12:15:23;1.50;;;1.40;;
10463;SDS011;5279;42.048;24.638;2023-07-28T12:18:02;1.30;;;1.20;;
10463;SDS011;5279;42.048;24.638;2023-07-28T12:20:35;2.72;;;1.30;;
10463;SDS011;5279;42.048;24.638;2023-07-28T12:23:03;1.35;;;1.17;;
10463;SDS011;5279;42.048;24.638;2023-07-28T12:25:30;1.92;;;1.30;;
10463;SDS011;5279;42.048;24.638;2023-07-28T12:27:57;1.67;;;1.20;;
10463;SDS011;5279;42.048;24.638;2023-07-28T12:30:24;1.48;;;1.38;;
10463;SDS011;5279;42.048;24.638;2023-07-28T12:32:51;1.58;;;1.20;;
10463;SDS011;5279;42.048;24.638;2023-07-28T12:35:19;2.25;;;1.30;;
10463;SDS011;5279;42.048;24.638;2023-07-28T12:37:48;3.40;;;1.50;;
10463;SDS011;5279;42.048;24.638;2023-07-28T12:40:15;2.47;;;1.33;;
10463;SDS011;5279;42.048;24.638;2023-07-28T12:42:44;1.25;;;1.15;;
10463;SDS011;5279;42.048;24.638;2023-07-28T12:45:11;1.55;;;1.45;;
10463;SDS011;5279;42.048;24.638;2023-07-28T12:47:38;1.45;;;1.35;;
10463;SDS011;5279;42.048;24.638;2023-07-28T12:50:05;1.80;;;1.30;;
10463;SDS011;5279;42.048;24.638;2023-07-28T12:52:34;1.40;;;1.30;;
10463;SDS011;5279;42.048;24.638;2023-07-28T12:55:01;1.30;;;1.20;;
10463;SDS011;5279;42.048;24.638;2023-07-28T12:57:28;1.55;;;1.33;;
10463;SDS011;5279;42.048;24.638;2023-07-28T12:59:55;2.08;;;1.73;;
10463;SDS011;5279;42.048;24.638;2023-07-28T13:02:22;1.50;;;1.40;;
10463;SDS011;5279;42.048;24.638;2023-07-28T13:04:49;1.77;;;1.65;;
10463;SDS011;5279;42.048;24.638;2023-07-28T13:07:16;1.58;;;1.30;;
10463;SDS011;5279;42.048;24.638;2023-07-28T13:09:44;2.30;;;1.30;;
10463;SDS011;5279;42.048;24.638;2023-07-28T13:12:11;1.30;;;1.20;;
10463;SDS011;5279;42.048;24.638;2023-07-28T13:14:38;1.60;;;1.50;;
10463;SDS011;5279;42.048;24.638;2023-07-28T13:17:05;1.50;;;1.40;;
10463;SDS011;5279;42.048;24.638;2023-07-28T13:19:32;3.47;;;1.45;;
10463;SDS011;5279;42.048;24.638;2023-07-28T13:21:59;5.75;;;1.55;;
10463;SDS011;5279;42.048;24.638;2023-07-28T13:24:26;2.08;;;1.25;;
10463;SDS011;5279;42.048;24.638;2023-07-28T13:26:54;1.30;;;1.20;;
10463;SDS011;5279;42.048;24.638;2023-07-28T13:29:22;1.50;;;1.40;;
10463;SDS011;5279;42.048;24.638;2023-07-28T13:31:49;1.40;;;1.30;;
10463;SDS011;5279;42.048;24.638;2023-07-28T13:34:16;1.55;;;1.45;;
10463;SDS011;5279;42.048;24.638;2023-07-28T13:36:43;1.63;;;1.33;;
10463;SDS011;5279;42.048;24.638;2023-07-28T13:39:09;3.35;;;1.30;;
10463;SDS011;5279;42.048;24.638;2023-07-28T13:41:37;2.85;;;1.30;;
10463;SDS011;5279;42.048;24.638;2023-07-28T13:44:05;1.30;;;1.20;;
10463;SDS011;5279;42.048;24.638;2023-07-28T13:46:32;1.50;;;1.40;;
10463;SDS011;5279;42.048;24.638;2023-07-28T13:48:59;2.72;;;1.30;;
10463;SDS011;5279;42.048;24.638;2023-07-28T13:51:26;1.50;;;1.40;;
10463;SDS011;5279;42.048;24.638;2023-07-28T13:53:53;1.50;;;1.40;;
10463;SDS011;5279;42.048;24.638;2023-07-28T13:56:20;2.13;;;1.23;;
10463;SDS011;5279;42.048;24.638;2023-07-28T13:58:47;1.83;;;1.35;;
10463;SDS011;5279;42.048;24.638;2023-07-28T14:01:15;1.42;;;1.33;;
10463;SDS011;5279;42.048;24.638;2023-07-28T14:03:42;1.88;;;1.63;;
10463;SDS011;5279;42.048;24.638;2023-07-28T14:06:09;1.15;;;1.10;;
10463;SDS011;5279;42.048;24.638;2023-07-28T14:08:36;1.35;;;1.23;;
10463;SDS011;5279;42.048;24.638;2023-07-28T14:11:03;3.42;;;1.20;;
10463;SDS011;5279;42.048;24.638;2023-07-28T14:13:30;2.30;;;1.45;;
10463;SDS011;5279;42.048;24.638;2023-07-28T14:15:58;1.23;;;1.17;;
10463;SDS011;5279;42.048;24.638;2023-07-28T14:18:26;1.55;;;1.20;;
10463;SDS011;5279;42.048;24.638;2023-07-28T14:20:53;2.58;;;1.70;;
10463;SDS011;5279;42.048;24.638;2023-07-28T14:23:20;2.55;;;1.50;;
10463;SDS011;5279;42.048;24.638;2023-07-28T14:25:51;1.13;;;1.13;;
10463;SDS011;5279;42.048;24.638;2023-07-28T14:28:18;1.30;;;1.20;;
10463;SDS011;5279;42.048;24.638;2023-07-28T14:30:45;1.60;;;1.50;;
10463;SDS011;5279;42.048;24.638;2023-07-28T14:33:12;1.50;;;1.40;;
10463;SDS011;5279;42.048;24.638;2023-07-28T14:35:42;2.38;;;1.40;;
10463;SDS011;5279;42.048;24.638;2023-07-28T14:38:10;1.30;;;1.20;;
10463;SDS011;5279;42.048;24.638;2023-07-28T14:40:37;1.90;;;1.80;;
10463;SDS011;5279;42.048;24.638;2023-07-28T14:43:05;1.60;;;1.50;;
10463;SDS011;5279;42.048;24.638;2023-07-28T14:45:32;2.15;;;1.20;;
10463;SDS011;5279;42.048;24.638;2023-07-28T14:47:59;2.55;;;1.50;;
10463;SDS011;5279;42.048;24.638;2023-07-28T14:50:27;1.50;;;1.40;;
10463;SDS011;5279;42.048;24.638;2023-07-28T14:55:26;1.27;;;1.23;;
10463;SDS011;5279;42.048;24.638;2023-07-28T14:57:53;1.48;;;1.38;;